createdAt,value
2019-04-07T00:02:22.433Z,40.08
2019-04-07T00:04:53.461Z,40.14
2019-04-07T00:07:24.173Z,40.18
2019-04-07T00:09:54.611Z,40.23
2019-04-07T00:12:25.388Z,40.27
2019-04-07T00:14:58.356Z,40.29
2019-04-07T00:17:31.160Z,40.32
2019-04-07T00:20:01.578Z,40.33
2019-04-07T00:22:32.384Z,40.34
2019-04-07T00:25:02.796Z,40.37
2019-04-07T00:27:33.395Z,40.41
2019-04-07T00:30:04.068Z,40.46
2019-04-07T00:32:35.038Z,40.51
2019-04-07T00:35:05.761Z,40.50
2019-04-07T00:37:36.327Z,40.54
2019-04-07T00:40:08.627Z,40.54
2019-04-07T00:42:39.137Z,40.54
2019-04-07T00:45:09.777Z,40.61
2019-04-07T00:47:40.304Z,40.61
2019-04-07T00:50:10.704Z,40.65
2019-04-07T00:52:41.105Z,40.69
2019-04-07T00:55:11.660Z,40.71
2019-04-07T00:57:42.038Z,40.75
2019-04-07T01:00:13.555Z,40.79
2019-04-07T01:02:44.118Z,40.82
2019-04-07T01:05:14.795Z,40.83
2019-04-07T01:07:46.371Z,40.87
2019-04-07T01:10:17.438Z,40.91
2019-04-07T01:12:50.242Z,40.94
2019-04-07T01:15:20.752Z,40.97
2019-04-07T01:17:51.435Z,40.99
2019-04-07T01:20:22.729Z,41.04
2019-04-07T01:22:53.147Z,41.10
2019-04-07T01:25:24.167Z,41.12
2019-04-07T01:27:54.741Z,41.15
2019-04-07T01:30:25.190Z,41.17
2019-04-07T01:32:56.366Z,41.20
2019-04-07T01:35:26.827Z,41.21
2019-04-07T01:37:57.151Z,41.22
2019-04-07T01:40:27.523Z,41.29
2019-04-07T01:43:20.255Z,41.31
2019-04-07T01:46:07.456Z,41.33
2019-04-07T01:48:49.200Z,41.33
2019-04-07T01:51:44.586Z,41.37
2019-04-07T01:54:34.325Z,41.41
2019-04-07T01:57:36.419Z,41.49
2019-04-07T02:00:41.571Z,41.49
2019-04-07T02:03:29.880Z,41.52
2019-04-07T02:06:28.605Z,41.55
2019-04-07T02:09:03.358Z,41.58
2019-04-07T02:11:59.411Z,41.60
2019-04-07T02:14:48.850Z,41.66
2019-04-07T02:17:38.173Z,41.70
2019-04-07T02:20:16.711Z,41.72
2019-04-07T02:22:54.714Z,41.75
2019-04-07T02:25:41.668Z,41.78
2019-04-07T02:28:40.711Z,41.85
2019-04-07T02:31:29.633Z,41.90
2019-04-07T02:34:14.131Z,41.90
2019-04-07T02:37:03.234Z,41.93
2019-04-07T02:39:44.385Z,41.94
2019-04-07T02:42:23.999Z,41.97
2019-04-07T02:45:09.167Z,41.99
2019-04-07T02:47:58.456Z,42.09
2019-04-07T02:50:50.898Z,42.13
2019-04-07T02:53:31.485Z,42.18
2019-04-07T02:56:29.852Z,42.21
2019-04-07T02:59:25.527Z,42.22
2019-04-07T03:02:21.087Z,42.30
2019-04-07T03:05:10.203Z,42.33
2019-04-07T03:08:05.886Z,42.36
2019-04-07T03:10:54.240Z,42.38
2019-04-07T03:13:43.366Z,42.47
2019-04-07T03:16:24.470Z,42.51
2019-04-07T03:19:09.562Z,42.58
2019-04-07T03:22:03.828Z,42.62
2019-04-07T03:24:46.848Z,42.64
2019-04-07T03:27:36.080Z,42.66
2019-04-07T03:30:33.104Z,42.75
2019-04-07T03:33:15.404Z,42.81
2019-04-07T03:35:52.967Z,42.82
2019-04-07T03:38:33.332Z,42.85
2019-04-07T03:41:13.683Z,42.87
2019-04-07T03:44:12.854Z,42.93
2019-04-07T03:46:49.347Z,42.96
2019-04-07T03:49:45.673Z,42.99
2019-04-07T03:52:35.366Z,43.00
2019-04-07T03:55:15.756Z,43.05
2019-04-07T03:57:59.998Z,43.11
2019-04-07T04:01:25.943Z,43.13
2019-04-07T04:04:30.728Z,43.17
2019-04-07T04:07:31.454Z,43.21
2019-04-07T04:10:09.808Z,43.24
2019-04-07T04:12:45.692Z,43.27
2019-04-07T04:15:22.735Z,43.30
2019-04-07T04:17:55.248Z,43.33
2019-04-07T04:20:25.699Z,43.34
2019-04-07T04:22:56.051Z,43.37
2019-04-07T04:25:27.429Z,43.40
2019-04-07T04:27:58.908Z,43.42
2019-04-07T04:30:29.916Z,43.53
2019-04-07T04:33:00.452Z,43.54
2019-04-07T04:35:30.826Z,43.56
2019-04-07T04:38:01.874Z,43.60
2019-04-07T04:40:32.503Z,43.65
2019-04-07T04:43:05.024Z,43.66
2019-04-07T04:45:36.270Z,43.70
2019-04-07T04:48:06.867Z,43.71
2019-04-07T04:50:37.441Z,43.78
2019-04-07T04:53:09.248Z,43.84
2019-04-07T04:55:42.257Z,43.86
2019-04-07T04:58:12.720Z,43.94
2019-04-07T05:00:52.637Z,43.97
2019-04-07T05:03:22.964Z,43.98
2019-04-07T05:05:54.542Z,44.02
2019-04-07T05:08:25.831Z,44.06
2019-04-07T05:10:56.536Z,44.13
2019-04-07T05:13:27.265Z,44.21
2019-04-07T05:15:57.728Z,44.26
2019-04-07T05:18:30.624Z,44.32
2019-04-07T05:21:01.124Z,44.32
2019-04-07T05:23:33.418Z,44.35
2019-04-07T05:26:03.768Z,44.40
2019-04-07T05:28:36.932Z,44.42
2019-04-07T05:31:07.249Z,44.44
2019-04-07T05:33:37.756Z,44.50
2019-04-07T05:36:08.849Z,44.51
2019-04-07T05:38:39.518Z,44.53
2019-04-07T05:41:09.959Z,44.57
2019-04-07T05:43:40.565Z,44.63
2019-04-07T05:46:11.038Z,44.65
2019-04-07T05:48:42.133Z,44.68
2019-04-07T05:51:12.449Z,44.70
2019-04-07T05:53:46.429Z,44.75
2019-04-07T05:56:14.940Z,44.76
2019-04-07T05:58:45.279Z,44.77
2019-04-07T06:01:19.014Z,44.81
2019-04-07T06:03:47.955Z,44.85
2019-04-07T06:06:20.196Z,44.89
2019-04-07T06:08:50.770Z,44.93
2019-04-07T06:11:21.642Z,44.98
2019-04-07T06:13:52.887Z,45.02
2019-04-07T06:16:24.668Z,45.04
2019-04-07T06:18:55.514Z,45.10
2019-04-07T06:21:26.216Z,45.14
2019-04-07T06:23:59.843Z,45.18
2019-04-07T06:26:28.861Z,45.22
2019-04-07T06:28:59.827Z,45.26
2019-04-07T06:31:32.145Z,45.31
2019-04-07T06:34:02.269Z,45.37
2019-04-07T06:36:32.860Z,45.40
2019-04-07T06:39:05.722Z,45.38
2019-04-07T06:41:37.770Z,45.42
2019-04-07T06:44:16.561Z,45.42
2019-04-07T06:47:03.473Z,45.45
2019-04-07T06:49:44.716Z,45.47
2019-04-07T06:52:19.331Z,45.49
2019-04-07T06:55:24.621Z,45.56
2019-04-07T06:58:11.163Z,45.59
2019-04-07T07:00:54.951Z,45.64
2019-04-07T07:03:46.439Z,45.69
2019-04-07T07:06:35.982Z,45.75
2019-04-07T07:09:27.704Z,45.80
2019-04-07T07:12:30.825Z,45.82
2019-04-07T07:15:33.104Z,45.84
2019-04-07T07:18:27.262Z,45.89
2019-04-07T07:21:09.993Z,45.95
2019-04-07T07:23:47.056Z,46.00
2019-04-07T07:26:14.574Z,46.03
2019-04-07T07:28:45.797Z,46.03
2019-04-07T07:31:16.679Z,46.10
2019-04-07T07:33:47.399Z,46.12
2019-04-07T07:36:20.629Z,46.15
2019-04-07T07:38:59.566Z,46.19
2019-04-07T07:41:23.303Z,46.20
2019-04-07T07:43:54.833Z,46.23
2019-04-07T07:46:25.357Z,46.26
2019-04-07T07:48:59.003Z,46.30
2019-04-07T07:51:27.857Z,46.36
2019-04-07T07:54:00.536Z,46.42
2019-04-07T07:56:31.281Z,46.44
2019-04-07T07:59:02.585Z,46.45
2019-04-07T08:01:33.246Z,46.50
2019-04-07T08:04:03.714Z,46.60
2019-04-07T08:06:38.498Z,46.65
2019-04-07T08:09:13.669Z,46.69
2019-04-07T08:11:40.780Z,46.78
2019-04-07T08:14:15.121Z,46.86
2019-04-07T08:16:43.596Z,46.89
2019-04-07T08:19:14.022Z,46.93
2019-04-07T08:21:45.492Z,47.02
2019-04-07T08:24:18.588Z,47.07
2019-04-07T08:26:48.869Z,47.15
2019-04-07T08:29:21.422Z,47.20
2019-04-07T08:31:55.195Z,47.28
2019-04-07T08:34:24.426Z,47.34
2019-04-07T08:36:54.756Z,47.41
2019-04-07T08:39:29.083Z,47.45
2019-04-07T08:41:57.329Z,47.49
2019-04-07T08:44:29.681Z,47.52
2019-04-07T08:46:59.867Z,47.58
2019-04-07T08:49:32.697Z,47.63
2019-04-07T08:52:07.293Z,47.65
2019-04-07T08:54:34.397Z,47.72
2019-04-07T08:57:05.762Z,47.81
2019-04-07T08:59:40.536Z,47.90
2019-04-07T09:02:11.467Z,47.91
2019-04-07T09:04:44.284Z,47.93
2019-04-07T09:07:15.456Z,47.93
2019-04-07T09:09:48.470Z,47.96
2019-04-07T09:12:18.065Z,47.99
2019-04-07T09:14:49.221Z,48.07
2019-04-07T09:17:43.510Z,48.13
2019-04-07T09:20:40.906Z,48.18
2019-04-07T09:23:28.334Z,48.26
2019-04-07T09:26:19.925Z,48.45
2019-04-07T09:29:12.825Z,48.58
2019-04-07T09:31:54.801Z,48.68
2019-04-07T09:34:38.746Z,48.76
2019-04-07T09:37:43.344Z,48.78
2019-04-07T09:40:20.144Z,48.86
2019-04-07T09:43:22.434Z,48.91
2019-04-07T09:46:13.633Z,49.04
2019-04-07T09:49:10.910Z,49.16
2019-04-07T09:52:00.974Z,49.22
2019-04-07T09:55:01.047Z,49.30
2019-04-07T10:01:08.122Z,49.32
2019-04-07T10:04:07.804Z,49.45
2019-04-07T10:06:56.332Z,49.67
2019-04-07T10:10:03.639Z,50.09
2019-04-07T10:12:40.517Z,50.53
2019-04-07T10:15:39.603Z,50.81
2019-04-07T10:18:50.917Z,51.03
2019-04-07T10:21:42.974Z,51.35
2019-04-07T10:24:48.279Z,51.28
2019-04-07T10:27:36.830Z,50.91
2019-04-07T10:30:17.337Z,50.79
2019-04-07T10:33:13.324Z,50.79
2019-04-07T10:35:59.532Z,50.92
2019-04-07T10:39:07.396Z,51.03
2019-04-07T10:42:15.979Z,51.33
2019-04-07T10:45:05.880Z,51.54
2019-04-07T10:47:55.101Z,51.41
2019-04-07T10:53:41.529Z,51.57
2019-04-07T10:56:49.870Z,51.67
2019-04-07T10:59:49.411Z,51.93
2019-04-07T11:02:40.302Z,51.71
2019-04-07T11:05:28.426Z,51.46
2019-04-07T11:08:18.275Z,51.40
2019-04-07T11:11:06.647Z,51.62
2019-04-07T11:13:50.001Z,51.56
2019-04-07T11:16:52.418Z,51.42
2019-04-07T11:19:44.636Z,51.33
2019-04-07T11:22:36.716Z,51.21
2019-04-07T11:25:27.248Z,51.09
2019-04-07T11:28:13.324Z,51.03
2019-04-07T11:31:05.814Z,51.02
2019-04-07T11:33:42.155Z,51.28
2019-04-07T11:36:24.488Z,51.43
2019-04-07T11:39:13.513Z,51.43
2019-04-07T11:42:04.787Z,51.49
2019-04-07T11:44:53.098Z,51.39
2019-04-07T11:47:42.761Z,51.31
2019-04-07T11:50:27.973Z,51.23
2019-04-07T11:53:05.307Z,51.16
2019-04-07T11:55:54.631Z,51.16
2019-04-07T11:58:34.459Z,51.15
2019-04-07T12:01:30.350Z,51.35
2019-04-07T12:04:29.516Z,51.34
2019-04-07T12:07:25.128Z,51.28
2019-04-07T12:10:21.396Z,51.11
2019-04-07T12:13:09.075Z,50.97
2019-04-07T12:15:59.293Z,50.88
2019-04-07T12:18:55.559Z,50.86
2019-04-07T12:21:45.050Z,50.94
2019-04-07T12:24:41.269Z,50.97
2019-04-07T12:27:30.273Z,50.96
2019-04-07T12:30:22.511Z,51.02
2019-04-07T12:33:18.002Z,50.94
2019-04-07T12:36:44.823Z,50.87
2019-04-07T12:39:34.963Z,50.79
2019-04-07T12:42:33.296Z,50.72
2019-04-07T12:45:22.311Z,50.64
2019-04-07T12:51:12.221Z,50.53
2019-04-07T12:53:53.335Z,50.50
2019-04-07T13:00:24.156Z,50.48
2019-04-07T13:02:58.528Z,50.40
2019-04-07T13:05:46.696Z,50.31
2019-04-07T13:08:36.313Z,50.21
2019-04-07T13:11:25.438Z,50.17
2019-04-07T13:14:16.645Z,50.17
2019-04-07T13:17:09.018Z,50.16
2019-04-07T13:20:02.303Z,50.13
2019-04-07T13:25:25.115Z,50.09
2019-04-07T13:28:15.216Z,50.08
2019-04-07T13:31:04.954Z,50.06
2019-04-07T13:33:53.334Z,50.04
2019-04-07T13:36:34.811Z,49.99
2019-04-07T13:39:26.300Z,49.91
2019-04-07T13:42:16.397Z,49.89
2019-04-07T13:44:58.536Z,49.86
2019-04-07T13:47:58.455Z,49.83
2019-04-07T13:50:40.586Z,49.78
2019-04-07T13:53:36.711Z,49.72
2019-04-07T13:56:47.993Z,49.69
2019-04-07T13:59:45.326Z,49.72
2019-04-07T14:02:30.179Z,49.80
2019-04-07T14:05:15.257Z,49.81
2019-04-07T14:08:04.206Z,49.81
2019-04-07T14:10:59.334Z,49.79
2019-04-07T14:14:05.729Z,49.73
2019-04-07T14:17:08.561Z,49.65
2019-04-07T14:19:57.723Z,49.58
2019-04-07T14:22:46.585Z,49.52
2019-04-07T14:25:35.642Z,49.49
2019-04-07T14:28:19.003Z,49.49
2019-04-07T14:31:12.858Z,49.58
2019-04-07T14:34:07.466Z,49.60
2019-04-07T14:37:03.215Z,49.62
2019-04-07T14:39:43.420Z,49.61
2019-04-07T14:42:39.486Z,49.57
2019-04-07T14:45:29.473Z,49.54
2019-04-07T14:48:34.776Z,49.46
2019-04-07T14:51:24.073Z,49.42
2019-04-07T14:54:22.798Z,49.47
2019-04-07T14:57:12.803Z,49.66
2019-04-07T14:59:57.846Z,49.82
2019-04-07T15:02:29.102Z,49.96
2019-04-07T15:05:04.201Z,49.98
2019-04-07T15:07:46.268Z,49.94
2019-04-07T15:10:24.521Z,49.77
2019-04-07T15:12:58.102Z,49.67
2019-04-07T15:15:31.412Z,49.77
2019-04-07T15:18:01.773Z,49.82
2019-04-07T15:20:32.316Z,49.70
2019-04-07T15:23:05.534Z,49.53
2019-04-07T15:25:40.104Z,49.44
2019-04-07T15:28:09.006Z,49.33
2019-04-07T15:30:39.640Z,49.28
2019-04-07T15:36:09.264Z,49.27
2019-04-07T15:38:41.716Z,49.24
2019-04-07T15:41:15.624Z,49.21
2019-04-07T15:43:45.303Z,49.15
2019-04-07T15:46:18.056Z,49.11
2019-04-07T15:48:48.431Z,49.05
2019-04-07T15:51:20.536Z,49.01
2019-04-07T15:53:52.058Z,48.95
2019-04-07T15:56:23.962Z,48.90
2019-04-07T15:59:04.871Z,48.81
2019-04-07T16:01:38.009Z,48.78
2019-04-07T16:04:07.421Z,48.74
2019-04-07T16:06:38.708Z,48.76
2019-04-07T16:09:16.692Z,48.73
2019-04-07T16:11:42.360Z,48.73
2019-04-07T16:14:14.642Z,48.69
2019-04-07T16:16:45.127Z,48.66
2019-04-07T16:19:19.814Z,48.65
2019-04-07T16:21:48.254Z,48.64
2019-04-07T16:24:20.893Z,48.61
2019-04-07T16:26:51.458Z,48.58
2019-04-07T16:29:23.522Z,48.59
2019-04-07T16:31:57.003Z,48.54
2019-04-07T16:34:26.335Z,48.56
2019-04-07T16:36:59.367Z,48.53
2019-04-07T16:39:32.404Z,48.52
2019-04-07T16:42:01.007Z,48.51
2019-04-07T16:44:31.872Z,48.50
2019-04-07T16:47:04.007Z,48.47
2019-04-07T16:49:34.130Z,48.44
2019-04-07T16:52:05.928Z,48.44
2019-04-07T16:54:43.458Z,48.45
2019-04-07T16:57:12.981Z,48.42
2019-04-07T16:59:43.613Z,48.42
2019-04-07T17:02:17.610Z,48.41
2019-04-07T17:04:46.909Z,48.39
2019-04-07T17:07:21.060Z,48.38
2019-04-07T17:09:54.944Z,48.35
2019-04-07T17:12:23.897Z,48.35
2019-04-07T17:14:54.385Z,48.30
2019-04-07T17:17:31.426Z,48.28
2019-04-07T17:20:03.621Z,48.28
2019-04-07T17:23:02.057Z,48.29
2019-04-07T17:25:38.056Z,48.26
2019-04-07T17:28:13.567Z,48.25
2019-04-07T17:31:05.871Z,48.25
2019-04-07T17:33:37.923Z,48.22
2019-04-07T17:36:09.000Z,48.24
2019-04-07T17:38:45.320Z,48.23
2019-04-07T17:41:21.439Z,48.23
2019-04-07T17:44:04.481Z,48.24
2019-04-07T17:46:49.190Z,48.23
2019-04-07T17:49:50.451Z,48.23
2019-04-07T17:52:40.891Z,48.23
2019-04-07T17:55:30.822Z,48.22
2019-04-07T17:58:16.022Z,48.21
2019-04-07T18:01:04.653Z,48.21
2019-04-07T18:03:57.079Z,48.22
2019-04-07T18:06:40.361Z,48.22
2019-04-07T18:09:29.873Z,48.22
2019-04-07T18:12:19.833Z,48.21
2019-04-07T18:15:06.402Z,48.22
2019-04-07T18:17:56.077Z,48.22
2019-04-07T18:20:47.433Z,48.23
2019-04-07T18:23:39.825Z,48.23
2019-04-07T18:26:25.143Z,48.25
2019-04-07T18:29:13.655Z,48.24
2019-04-07T18:32:00.130Z,48.28
2019-04-07T18:34:49.663Z,48.28
2019-04-07T18:37:42.262Z,48.27
2019-04-07T18:40:27.303Z,48.28
2019-04-07T18:43:15.695Z,48.33
2019-04-07T18:46:07.303Z,48.30
2019-04-07T18:48:53.359Z,48.33
2019-04-07T18:51:47.079Z,48.33
2019-04-07T18:54:36.716Z,48.37
2019-04-07T18:57:36.042Z,48.37
2019-04-07T19:00:24.594Z,48.37
2019-04-07T19:03:02.452Z,48.38
2019-04-07T19:05:43.676Z,48.41
2019-04-07T19:08:32.748Z,48.43
2019-04-07T19:11:14.863Z,48.47
2019-04-07T19:14:30.675Z,48.46
2019-04-07T19:16:50.909Z,48.49
2019-04-07T19:19:39.738Z,48.47
2019-04-07T19:22:21.252Z,48.53
2019-04-07T19:25:33.595Z,48.53
2019-04-07T19:28:38.309Z,48.53
2019-04-07T19:31:30.691Z,48.55
2019-04-07T19:34:20.532Z,48.58
2019-04-07T19:37:10.272Z,48.58
2019-04-07T19:40:02.482Z,48.60
2019-04-07T19:42:56.354Z,48.61
2019-04-07T19:46:04.851Z,48.67
2019-04-07T19:48:57.445Z,48.63
2019-04-07T19:51:48.538Z,48.69
2019-04-07T19:54:29.966Z,48.72
2019-04-07T19:57:18.158Z,48.71
2019-04-07T20:00:22.195Z,48.72
2019-04-07T20:03:09.659Z,48.73
2019-04-07T20:05:50.883Z,48.74
2019-04-07T20:08:43.791Z,48.76
2019-04-07T20:11:37.078Z,48.78
2019-04-07T20:14:18.336Z,48.81
2019-04-07T20:17:16.530Z,48.81
2019-04-07T20:19:55.649Z,48.84
2019-04-07T20:23:04.409Z,48.87
2019-04-07T20:25:44.849Z,48.89
2019-04-07T20:28:21.013Z,48.89
2019-04-07T20:31:28.463Z,48.92
2019-04-07T20:34:21.083Z,48.94
2019-04-07T20:37:07.220Z,48.95
2019-04-07T20:40:17.456Z,48.96
2019-04-07T20:42:54.613Z,48.96
2019-04-07T20:45:53.840Z,48.98
2019-04-07T20:48:37.277Z,49.00
2019-04-07T20:51:30.601Z,49.02
2019-04-07T20:54:17.399Z,49.03
2019-04-07T20:57:16.366Z,49.05
2019-04-07T21:00:02.351Z,49.05
2019-04-07T21:02:43.291Z,49.07
2019-04-07T21:05:35.781Z,49.09
2019-04-07T21:08:25.924Z,49.10
2019-04-07T21:11:08.072Z,49.10
2019-04-07T21:13:56.471Z,49.12
2019-04-07T21:17:01.621Z,49.11
2019-04-07T21:19:50.851Z,49.09
2019-04-07T21:22:55.934Z,49.09
2019-04-07T21:25:41.324Z,49.13
2019-04-07T21:28:24.608Z,49.11
2019-04-07T21:31:17.286Z,49.14
2019-04-07T21:33:57.524Z,49.13
2019-04-07T21:36:40.529Z,49.16
2019-04-07T21:39:25.893Z,49.17
2019-04-07T21:42:16.217Z,49.18
2019-04-07T21:45:07.322Z,49.23
2019-04-07T21:47:46.822Z,49.20
2019-04-07T21:50:40.023Z,49.24
2019-04-07T21:53:29.169Z,49.25
2019-04-07T21:56:11.411Z,49.28
2019-04-07T21:58:57.881Z,49.30
2019-04-07T22:01:37.786Z,49.31
2019-04-07T22:04:30.214Z,49.33
2019-04-07T22:07:27.642Z,49.34
2019-04-07T22:10:00.687Z,49.35
2019-04-07T22:12:33.010Z,49.36
2019-04-07T22:15:05.034Z,49.39
2019-04-07T22:17:37.169Z,49.41
2019-04-07T22:20:08.463Z,49.43
2019-04-07T22:22:38.956Z,49.46
2019-04-07T22:25:11.485Z,49.47
2019-04-07T22:27:41.900Z,49.48
2019-04-07T22:30:14.383Z,49.53
2019-04-07T22:32:44.936Z,49.55
2019-04-07T22:35:15.463Z,49.56
2019-04-07T22:37:48.295Z,49.58
2019-04-07T22:40:21.405Z,49.61
2019-04-07T22:42:51.827Z,49.63
2019-04-07T22:45:27.780Z,49.66
2019-04-07T22:47:55.086Z,49.70
2019-04-07T22:50:25.539Z,49.72
2019-04-07T22:52:55.932Z,49.72
2019-04-07T22:55:27.027Z,49.75
2019-04-07T22:57:57.859Z,49.75
2019-04-07T23:00:28.762Z,49.79
2019-04-07T23:02:59.471Z,49.78
2019-04-07T23:05:29.984Z,49.80
2019-04-07T23:08:00.274Z,49.84
2019-04-07T23:10:31.564Z,49.83
2019-04-07T23:13:02.044Z,49.87
2019-04-07T23:15:41.568Z,49.87
2019-04-07T23:18:05.430Z,49.90
2019-04-07T23:20:35.912Z,49.91
2019-04-07T23:23:06.817Z,49.95
2019-04-07T23:25:37.188Z,49.96
2019-04-07T23:28:08.210Z,50.01
2019-04-07T23:30:38.541Z,50.00
2019-04-07T23:33:08.856Z,50.01
2019-04-07T23:35:39.341Z,50.03
2019-04-07T23:38:09.761Z,50.04
2019-04-07T23:40:40.193Z,50.05
2019-04-07T23:43:11.155Z,50.07
2019-04-07T23:45:41.983Z,50.07
2019-04-07T23:48:12.691Z,50.09
2019-04-07T23:50:44.414Z,50.11
2019-04-07T23:53:50.824Z,50.10
2019-04-07T23:56:21.223Z,50.12
2019-04-07T23:58:52.041Z,50.12
